Cascalho Rico, Brazil
Current Conditions -  °F | °C
As of 6:00 PM on Sunday 25 Jan 2015 (Local Time) from SBUL Reporting Station
Scattered Clouds Scattered Clouds  
Wind Chill: 75°   Ceiling: Unl
Heat Index: 75°   Visibility: 6mi
Dew Point: 64°   Wind: 5mph
Humidity: 69%   Direction: 340°NNW
Pressure: 30"   Gusts: NA
Location:  18.58°S, 47.88°W
Report Text: SBUL 252000Z 34004KT 9999 FEW040 FEW045TCU SCT100 24/18 Q1016
Loading
Personal Weather Stations






























Interactive Weather Map New forecast layout! Learn more

10-Day Weather Forecast

Advertisements
Track Severe Weather on mobile